Bookmark and Share
Track history (hours):
 

Callsign BAREU63 (name unknown)

Last reported at 2013-Apr-17 20:00 UTC. Time now 2014-Apr-24 14:02 UTC.
Position N 44°24' E 009°00'.
Warning: this ship's position is years out of date!

Barometer 1021.4 mb
Air temperature 16.1 ° C

NotesDate/timePositionNaut miles runAvg speedWind from/ knotsBaromVisibWave heightAir tempDewpointWater temp
2013-Apr-17 20:00N 44°24' E 009°00'0 0.0 1021.4 16.1
2013-Apr-17 05:00N 44°24' E 009°00'6 6.0 1022.1 14.3
2013-Apr-17 04:00N 44°18' E 009°00'1312.7 1021.5 15.1
2013-Apr-17 03:00N 44°06' E 009°06'1312.8 1021.1 14.8
2013-Apr-17 02:00N 43°54' E 009°12'1312.8 1021.4 14.6
2013-Apr-17 01:00N 43°42' E 009°18'1312.8 1021.1 13.3
2013-Apr-17 00:00N 43°30' E 009°24'1312.8 1021.5 13.1
2013-Apr-16 23:00N 43°18' E 009°30'1312.8 1021.5 14.8
2013-Apr-16 22:00N 43°06' E 009°36'1312.8 1021.4 15.2
2013-Apr-16 21:00N 42°54' E 009°42'1212.0 1021.0 15.9
2013-Apr-16 20:00N 42°42' E 009°42'1212.0 1020.7 16.6
2013-Apr-16 19:00N 42°30' E 009°42'1918.5 1020.3 16.9
2013-Apr-16 18:00N 42°12' E 009°48'1212.0 1020.0 16.8
2013-Apr-16 17:00N 42°00' E 009°48'1212.0 1019.8 18.5
2013-Apr-16 16:00N 41°48' E 009°48'1312.8 1019.7 18.5
2013-Apr-16 15:00N 41°36' E 009°54'1212.0 1019.7 18.7
2013-Apr-16 14:00N 41°24' E 009°54'1212.0 1020.1 17.6
2013-Apr-16 13:00N 41°12' E 009°54'1312.8 1020.2 17.2
2013-Apr-16 12:00N 41°00' E 010°00'1212.0 1020.7 18.5
2013-Apr-16 11:00N 40°48' E 010°00'1212.0 1021.0 17.5
2013-Apr-16 10:00N 40°36' E 010°00'1212.0 1021.4 18.1
2013-Apr-16 09:00N 40°24' E 010°00'1212.0 1021.1 17.8
2013-Apr-16 08:00N 40°12' E 010°00'1212.0 1021.1 16.4
2013-Apr-16 07:00N 40°00' E 010°00'1818.0 1020.8 16.5
2013-Apr-16 06:00N 39°42' E 010°00'1312.9 1020.9 15.4
2013-Apr-16 05:00N 39°30' E 010°06'8 7.6 1020.4 14.9
2013-Apr-16 04:00N 39°24' E 010°12'1515.2 1020.2 15.1
2013-Apr-16 03:00N 39°12' E 010°24'1312.9 1019.9 15.5
2013-Apr-16 02:00N 39°00' E 010°30'1312.9 1020.2 15.5
2013-Apr-16 01:00N 38°48' E 010°36'1312.9 1020.2 15.5
2013-Apr-16 00:00N 38°36' E 010°42'1515.2 1020.6 15.3
2013-Apr-15 23:00N 38°24' E 010°54'1312.9 1020.6 16.0
2013-Apr-15 22:00N 38°12' E 011°00'1312.9 1020.6 15.6
2013-Apr-15 21:00N 38°00' E 011°06'1312.9 1020.7 15.6
2013-Apr-15 20:00N 37°48' E 011°12'1515.3 1020.8 15.6
2013-Apr-15 19:00N 37°36' E 011°24'8 7.7 1020.6 16.0
2013-Apr-15 18:00N 37°30' E 011°30'1312.9 1019.8 16.9
2013-Apr-15 17:00N 37°18' E 011°36'1312.9 1019.6 18.4
2013-Apr-15 16:00N 37°06' E 011°42'1312.9 1019.6 20.4
2013-Apr-15 15:00N 36°54' E 011°48'1312.9 1020.0 20.3
2013-Apr-15 14:00N 36°42' E 011°54'1312.9 1020.2 20.6
2013-Apr-15 13:00N 36°30' E 012°00'1312.9 1020.8 20.6
2013-Apr-15 12:00N 36°18' E 012°06'1312.9 1021.4 18.5
2013-Apr-15 11:00N 36°06' E 012°12'1212.0 1021.7 17.7
2013-Apr-15 10:00N 35°54' E 012°12'1312.9 1021.9 17.4
2013-Apr-15 09:00N 35°42' E 012°18'1313.0 1021.6 16.9
2013-Apr-15 08:00N 35°30' E 012°24'1313.0 1021.2 17.1
2013-Apr-15 07:00N 35°18' E 012°30'1212.0 1021.0 17.1
2013-Apr-15 06:00N 35°06' E 012°30'1918.7 1020.8 16.6
2013-Apr-15 05:00N 34°48' E 012°36'1313.0 1020.4 16.4
2013-Apr-15 04:00N 34°36' E 012°42'6 6.0 1019.8 16.8
2013-Apr-15 03:00N 34°30' E 012°42'1313.0 1019.4 16.9
2013-Apr-15 02:00N 34°18' E 012°48'1313.0 1019.5 17.2
2013-Apr-15 01:00N 34°06' E 012°54'1212.0 1019.6 17.4
2013-Apr-15 00:00N 33°54' E 012°54'1313.0 1019.7 17.6
2013-Apr-14 23:00N 33°42' E 013°00'1918.7 1019.9 17.7
2013-Apr-14 22:00N 33°24' E 013°06'1212.0 1019.6 17.7
2013-Apr-14 21:00N 33°12' E 013°06'1313.0 1019.7 17.7
2013-Apr-14 20:00N 33°00' E 013°12'6 6.0 1019.7 18.1
2013-Apr-14 19:00N 32°54' E 013°12'0 0.0 1019.0 19.5
2013-Apr-14 06:00N 32°54' E 013°12'   1019.4 20.4
2013-Apr-11 13:00N 32°54' E 013°12'6 6.0 1017.9 19.9
2013-Apr-11 12:00N 33°00' E 013°12'0 0.0 1018.3 18.5
2013-Apr-10 22:00N 33°00' E 013°12'0 0.0 1017.5 17.4
2013-Apr-09 15:00N 33°00' E 013°12'0 0.0 1014.9 21.1
2013-Apr-08 03:00N 33°00' E 013°12'0 0.0 1015.7 15.7
2013-Apr-08 01:00N 33°00' E 013°12'0 0.0 1016.3 15.5
2013-Apr-07 23:00N 33°00' E 013°12'0 0.0 1016.5 15.4
2013-Apr-07 21:00N 33°00' E 013°12'   1015.6 16.5

Dump ship's entire track history

sailing weather and tide predictions

Ship Status Report: callsign BAREU63